createdAt,value
2023-04-04T00:01:55.288Z,0.95
2023-04-04T00:05:57.299Z,1.40
2023-04-04T00:09:59.442Z,1.40
2023-04-04T00:14:02.531Z,1.23
2023-04-04T00:18:04.706Z,1.30
2023-04-04T00:22:07.361Z,1.30
2023-04-04T00:26:09.351Z,1.40
2023-04-04T00:30:12.412Z,1.92
2023-04-04T00:34:14.435Z,1.65
2023-04-04T00:38:16.614Z,1.55
2023-04-04T00:42:18.807Z,1.50
2023-04-04T00:46:21.785Z,1.63
2023-04-04T00:50:23.960Z,1.92
2023-04-04T00:54:26.222Z,1.58
2023-04-04T00:58:30.085Z,1.50
2023-04-04T01:02:32.418Z,1.80
2023-04-04T01:06:35.092Z,1.75
2023-04-04T01:10:37.713Z,1.65
2023-04-04T01:14:43.096Z,2.10
2023-04-04T01:18:46.571Z,2.10
2023-04-04T01:22:50.962Z,2.10
2023-04-04T01:26:54.613Z,2.00
2023-04-04T01:31:00.943Z,1.80
2023-04-04T01:35:23.690Z,2.30
2023-04-04T01:39:52.990Z,2.20
2023-04-04T01:43:56.150Z,2.15
2023-04-04T01:47:59.494Z,2.05
2023-04-04T01:52:02.348Z,2.45
2023-04-04T01:56:04.842Z,2.00
2023-04-04T02:00:09.878Z,2.40
2023-04-04T02:04:20.657Z,2.28
2023-04-04T02:08:22.806Z,2.30
2023-04-04T02:12:29.897Z,2.20
2023-04-04T02:16:32.080Z,2.10
2023-04-04T02:20:34.592Z,2.03
2023-04-04T02:24:36.846Z,2.40
2023-04-04T02:28:39.015Z,2.15
2023-04-04T02:32:41.342Z,2.00
2023-04-04T02:36:43.601Z,2.20
2023-04-04T02:40:46.546Z,2.10
2023-04-04T02:44:48.981Z,1.98
2023-04-04T02:48:53.015Z,2.17
2023-04-04T02:53:02.651Z,1.95
2023-04-04T02:57:08.180Z,2.17
2023-04-04T03:01:10.622Z,2.15
2023-04-04T03:05:13.838Z,2.30
2023-04-04T03:09:15.998Z,2.10
2023-04-04T03:13:18.151Z,2.30
2023-04-04T03:17:21.514Z,2.22
2023-04-04T03:21:23.675Z,2.15
2023-04-04T03:25:25.960Z,2.30
2023-04-04T03:29:28.144Z,2.20
2023-04-04T03:33:33.102Z,2.70
2023-04-04T03:37:35.488Z,2.13
2023-04-04T03:41:37.495Z,2.53
2023-04-04T03:45:39.680Z,2.10
2023-04-04T03:49:43.040Z,2.22
2023-04-04T03:53:45.401Z,2.03
2023-04-04T03:57:47.876Z,2.20
2023-04-04T04:01:52.200Z,2.22
2023-04-04T04:05:55.343Z,2.10
2023-04-04T04:09:57.663Z,1.95
2023-04-04T04:14:00.759Z,2.30
2023-04-04T04:18:03.343Z,2.30
2023-04-04T04:22:06.193Z,2.63
2023-04-04T04:26:08.537Z,7.75
2023-04-04T04:30:10.815Z,5.30
2023-04-04T04:34:16.575Z,6.53
2023-04-04T04:38:19.200Z,5.68
2023-04-04T04:42:22.600Z,5.70
2023-04-04T04:46:30.200Z,3.83
2023-04-04T04:50:33.467Z,2.45
2023-04-04T04:54:35.649Z,2.33
2023-04-04T04:58:38.657Z,3.00
2023-04-04T05:02:44.391Z,2.55
2023-04-04T05:06:49.189Z,2.63
2023-04-04T05:10:52.772Z,2.58
2023-04-04T05:14:55.660Z,2.30
2023-04-04T05:18:58.208Z,2.60
2023-04-04T05:23:00.303Z,2.45
2023-04-04T05:27:09.719Z,2.53
2023-04-04T05:31:18.599Z,2.47
2023-04-04T05:35:21.213Z,2.33
2023-04-04T05:39:23.890Z,2.15
2023-04-04T05:43:39.443Z,2.25
2023-04-04T05:47:46.762Z,2.10
2023-04-04T05:51:50.346Z,1.90
2023-04-04T05:55:53.379Z,2.25
2023-04-04T05:59:57.995Z,2.50
2023-04-04T06:04:00.780Z,2.60
2023-04-04T06:08:03.271Z,2.35
2023-04-04T06:12:05.508Z,2.13
2023-04-04T06:16:08.214Z,2.45
2023-04-04T06:20:10.886Z,3.00
2023-04-04T06:24:13.113Z,3.17
2023-04-04T06:28:16.850Z,2.95
2023-04-04T06:32:22.286Z,3.50
2023-04-04T06:36:24.825Z,4.22
2023-04-04T06:40:27.702Z,4.63
2023-04-04T06:44:30.520Z,3.55
2023-04-04T06:48:32.590Z,1.67
2023-04-04T06:52:34.873Z,1.52
2023-04-04T06:56:38.779Z,1.80
2023-04-04T07:00:41.360Z,1.45
2023-04-04T07:04:43.744Z,1.92
2023-04-04T07:08:46.007Z,1.85
2023-04-04T07:12:48.192Z,1.50
2023-04-04T07:16:50.443Z,1.63
2023-04-04T07:20:52.479Z,1.60
2023-04-04T07:24:54.612Z,1.40
2023-04-04T07:28:57.100Z,1.33
2023-04-04T07:33:00.376Z,1.40
2023-04-04T07:37:02.825Z,1.10
2023-04-04T07:41:04.833Z,1.50
2023-04-04T07:45:07.442Z,1.65
2023-04-04T07:49:09.530Z,1.50
2023-04-04T07:53:11.635Z,1.58
2023-04-04T07:57:14.392Z,1.40
2023-04-04T08:01:16.554Z,1.50
2023-04-04T08:05:18.830Z,1.80
2023-04-04T08:09:20.826Z,1.85
2023-04-04T08:13:23.197Z,2.15
2023-04-04T08:17:25.580Z,1.90
2023-04-04T08:21:27.755Z,1.55
2023-04-04T08:25:30.426Z,1.73
2023-04-04T08:29:33.132Z,1.90
2023-04-04T08:33:46.754Z,1.60
2023-04-04T08:37:49.956Z,1.40
2023-04-04T08:42:01.548Z,1.50
2023-04-04T08:46:05.681Z,1.40
2023-04-04T08:50:08.151Z,1.80
2023-04-04T08:54:11.167Z,1.35
2023-04-04T08:58:13.191Z,1.50
2023-04-04T09:02:23.533Z,1.65
2023-04-04T09:06:26.568Z,1.55
2023-04-04T09:10:29.730Z,1.77
2023-04-04T09:14:33.566Z,1.45
2023-04-04T09:18:35.629Z,1.75
2023-04-04T09:22:44.614Z,1.52
2023-04-04T09:26:48.841Z,1.55
2023-04-04T09:30:52.027Z,1.60
2023-04-04T09:34:54.847Z,1.50
2023-04-04T09:38:57.148Z,1.52
2023-04-04T09:43:03.657Z,1.50
2023-04-04T09:51:36.045Z,1.80
2023-04-04T09:55:38.364Z,1.50
2023-04-04T09:59:41.185Z,1.60
2023-04-04T10:03:43.542Z,1.63
2023-04-04T10:07:47.246Z,1.60
2023-04-04T10:11:49.400Z,1.23
2023-04-04T10:15:56.355Z,1.40
2023-04-04T10:20:03.862Z,1.30
2023-04-04T10:24:09.782Z,1.35
2023-04-04T10:28:12.493Z,1.40
2023-04-04T10:32:26.975Z,1.40
2023-04-04T10:36:34.587Z,1.30
2023-04-04T10:40:40.015Z,1.30
2023-04-04T10:44:44.847Z,1.33
2023-04-04T10:48:47.834Z,1.58
2023-04-04T10:52:50.857Z,1.30
2023-04-04T10:56:55.100Z,1.20
2023-04-04T11:00:57.753Z,1.50
2023-04-04T11:05:30.441Z,1.50
2023-04-04T11:09:48.329Z,1.20
2023-04-04T11:14:00.483Z,1.70
2023-04-04T11:18:17.245Z,1.42
2023-04-04T11:22:23.734Z,1.27
2023-04-04T11:26:26.216Z,1.40
2023-04-04T11:30:28.454Z,1.50
2023-04-04T11:34:32.271Z,1.27
2023-04-04T11:38:35.298Z,1.67
2023-04-04T11:42:39.627Z,1.40
2023-04-04T11:46:42.230Z,1.50
2023-04-04T11:50:49.454Z,1.58
2023-04-04T11:59:01.508Z,1.60
2023-04-04T12:03:11.312Z,1.85
2023-04-04T12:07:17.626Z,2.00
2023-04-04T12:11:21.534Z,1.75
2023-04-04T12:15:23.528Z,1.95
2023-04-04T12:19:27.663Z,1.80
2023-04-04T12:23:34.686Z,1.50
2023-04-04T12:27:36.903Z,1.58
2023-04-04T12:31:41.321Z,1.90
2023-04-04T12:35:51.878Z,1.95
2023-04-04T12:39:54.691Z,1.70
2023-04-04T12:44:05.063Z,2.20
2023-04-04T12:48:13.645Z,2.20
2023-04-04T12:52:21.609Z,1.95
2023-04-04T12:56:27.530Z,2.20
2023-04-04T13:00:30.808Z,2.15
2023-04-04T13:04:33.559Z,2.20
2023-04-04T13:08:35.725Z,2.83
2023-04-04T13:13:01.459Z,2.50
2023-04-04T13:17:06.288Z,2.25
2023-04-04T13:21:10.009Z,1.98
2023-04-04T13:25:12.589Z,2.10
2023-04-04T13:29:14.703Z,2.30
2023-04-04T13:33:17.562Z,2.30
2023-04-04T13:37:20.732Z,2.58
2023-04-04T13:41:22.887Z,2.60
2023-04-04T13:45:25.352Z,2.20
2023-04-04T13:49:27.401Z,2.50
2023-04-04T13:53:29.413Z,2.20
2023-04-04T13:57:31.580Z,2.47
2023-04-04T14:01:33.768Z,2.10
2023-04-04T14:05:35.953Z,2.20
2023-04-04T14:09:38.172Z,2.38
2023-04-04T14:13:40.439Z,2.55
2023-04-04T14:17:43.090Z,2.40
2023-04-04T14:21:45.276Z,2.80
2023-04-04T14:25:47.288Z,2.25
2023-04-04T14:29:49.362Z,2.67
2023-04-04T14:33:51.420Z,2.60
2023-04-04T14:37:54.584Z,2.40
2023-04-04T14:41:57.417Z,2.35
2023-04-04T14:45:59.504Z,2.35
2023-04-04T14:50:01.723Z,2.30
2023-04-04T14:54:04.009Z,2.55
2023-04-04T14:58:06.945Z,2.38
2023-04-04T15:02:08.928Z,2.10
2023-04-04T15:06:10.989Z,2.30
2023-04-04T15:10:13.452Z,2.55
2023-04-04T15:14:15.652Z,2.78
2023-04-04T15:18:17.817Z,2.60
2023-04-04T15:22:20.839Z,2.50
2023-04-04T15:26:23.485Z,2.42
2023-04-04T15:30:25.887Z,2.35
2023-04-04T15:34:27.902Z,2.33
2023-04-04T15:38:30.051Z,2.20
2023-04-04T15:42:32.152Z,2.03
2023-04-04T15:46:34.312Z,2.40
2023-04-04T15:50:36.330Z,2.17
2023-04-04T15:54:38.336Z,2.20
2023-04-04T15:58:40.385Z,2.10
2023-04-04T16:02:42.827Z,2.25
2023-04-04T16:06:44.983Z,2.17
2023-04-04T16:10:47.107Z,2.28
2023-04-04T16:14:49.155Z,2.25
2023-04-04T16:18:51.278Z,2.70
2023-04-04T16:22:54.792Z,2.10
2023-04-04T16:26:57.942Z,2.40
2023-04-04T16:31:00.241Z,2.17
2023-04-04T16:35:02.427Z,2.50
2023-04-04T16:39:04.588Z,2.38
2023-04-04T16:43:06.802Z,2.10
2023-04-04T16:47:10.389Z,2.42
2023-04-04T16:51:13.399Z,2.38
2023-04-04T16:55:15.501Z,3.00
2023-04-04T16:59:17.698Z,2.47
2023-04-04T17:03:19.883Z,2.40
2023-04-04T17:07:22.021Z,2.20
2023-04-04T17:11:24.140Z,5.20
2023-04-04T17:15:26.205Z,3.88
2023-04-04T17:19:30.314Z,2.90
2023-04-04T17:23:32.424Z,2.00
2023-04-04T17:27:34.463Z,2.50
2023-04-04T17:31:38.418Z,2.10
2023-04-04T17:35:40.600Z,2.50
2023-04-04T17:39:44.180Z,2.10
2023-04-04T17:43:47.407Z,2.50
2023-04-04T17:47:49.491Z,2.50
2023-04-04T17:51:52.157Z,3.30
2023-04-04T17:55:54.260Z,2.97
2023-04-04T17:59:56.573Z,2.70
2023-04-04T18:03:58.791Z,2.47
2023-04-04T18:08:04.771Z,2.20
2023-04-04T18:12:07.191Z,2.22
2023-04-04T18:16:09.775Z,2.38
2023-04-04T18:20:16.292Z,2.53
2023-04-04T18:24:21.147Z,2.65
2023-04-04T18:28:23.776Z,2.38
2023-04-04T18:32:28.356Z,2.40
2023-04-04T18:36:30.862Z,2.97
2023-04-04T18:40:32.902Z,2.47
2023-04-04T18:44:34.955Z,3.20
2023-04-04T18:48:37.049Z,2.90
2023-04-04T18:52:39.157Z,2.70
2023-04-04T18:56:41.257Z,2.55
2023-04-04T19:00:43.713Z,2.20
2023-04-04T19:04:46.611Z,2.35
2023-04-04T19:08:48.798Z,2.30
2023-04-04T19:12:50.889Z,2.80
2023-04-04T19:16:53.009Z,2.47
2023-04-04T19:20:55.169Z,4.07
2023-04-04T19:24:57.272Z,6.70
2023-04-04T19:28:59.274Z,5.20
2023-04-04T19:33:03.257Z,3.10
2023-04-04T19:37:06.453Z,2.50
2023-04-04T19:41:12.746Z,2.10
2023-04-04T19:45:15.049Z,2.50
2023-04-04T19:49:17.780Z,2.90
2023-04-04T19:53:21.730Z,2.78
2023-04-04T19:57:23.867Z,3.80
2023-04-04T20:01:28.052Z,4.78
2023-04-04T20:05:32.107Z,3.92
2023-04-04T20:09:38.341Z,3.38
2023-04-04T20:13:41.112Z,2.80
2023-04-04T20:17:43.131Z,3.28
2023-04-04T20:21:45.405Z,3.50
2023-04-04T20:25:47.452Z,4.95
2023-04-04T20:29:52.958Z,3.80
2023-04-04T20:33:55.157Z,3.60
2023-04-04T20:37:57.204Z,3.15
2023-04-04T20:41:59.228Z,2.92
2023-04-04T20:46:01.338Z,2.47
2023-04-04T20:50:20.356Z,2.50
2023-04-04T20:54:22.714Z,2.40
2023-04-04T20:58:30.061Z,2.33
2023-04-04T21:02:34.172Z,2.33
2023-04-04T21:06:36.612Z,2.20
2023-04-04T21:10:51.937Z,2.65
2023-04-04T21:14:54.537Z,2.47
2023-04-04T21:19:01.446Z,2.55
2023-04-04T21:23:06.661Z,3.45
2023-04-04T21:27:08.657Z,3.33
2023-04-04T21:31:13.788Z,2.83
2023-04-04T21:35:47.202Z,3.08
2023-04-04T21:39:57.027Z,3.20
2023-04-04T21:44:01.455Z,2.65
2023-04-04T21:48:03.632Z,2.90
2023-04-04T21:52:06.087Z,3.15
2023-04-04T21:56:08.139Z,5.32
2023-04-04T22:00:10.992Z,6.55
2023-04-04T22:04:13.102Z,5.38
2023-04-04T22:08:15.100Z,4.53
2023-04-04T22:12:19.263Z,4.65
2023-04-04T22:16:21.385Z,3.78
2023-04-04T22:20:23.431Z,3.80
2023-04-04T22:24:25.750Z,4.30
2023-04-04T22:28:27.897Z,3.15
2023-04-04T22:32:33.211Z,3.25
2023-04-04T22:36:35.541Z,3.22
2023-04-04T22:40:37.649Z,3.40
2023-04-04T22:44:39.658Z,3.50
2023-04-04T22:48:41.657Z,3.22
2023-04-04T22:52:43.884Z,3.60
2023-04-04T22:56:46.060Z,3.70
2023-04-04T23:00:48.498Z,3.47
2023-04-04T23:04:50.811Z,3.30
2023-04-04T23:08:52.837Z,3.58
2023-04-04T23:12:54.890Z,3.50
2023-04-04T23:16:57.301Z,4.30
2023-04-04T23:20:59.306Z,3.75
2023-04-04T23:25:01.320Z,3.45
2023-04-04T23:29:03.636Z,3.97
2023-04-04T23:33:05.755Z,3.83
2023-04-04T23:37:07.814Z,3.42
2023-04-04T23:41:11.103Z,3.67
2023-04-04T23:45:13.149Z,4.10
2023-04-04T23:49:15.539Z,4.47
2023-04-04T23:53:17.611Z,4.30
2023-04-04T23:57:19.646Z,4.20
